createdAt,value
2018-06-19T00:01:55.767Z,3.83
2018-06-19T00:04:22.993Z,4.20
2018-06-19T00:06:50.273Z,3.90
2018-06-19T00:09:17.508Z,3.77
2018-06-19T00:11:44.751Z,4.00
2018-06-19T00:14:11.965Z,3.90
2018-06-19T00:16:39.358Z,3.70
2018-06-19T00:19:07.217Z,3.90
2018-06-19T00:21:51.909Z,3.70
2018-06-19T00:24:19.102Z,3.67
2018-06-19T00:26:46.343Z,4.40
2018-06-19T00:29:13.537Z,4.33
2018-06-19T00:31:40.769Z,4.40
2018-06-19T00:34:07.965Z,4.27
2018-06-19T00:36:35.164Z,4.33
2018-06-19T00:39:02.441Z,4.23
2018-06-19T00:41:29.633Z,4.57
2018-06-19T00:43:56.825Z,4.63
2018-06-19T00:46:26.172Z,4.50
2018-06-19T00:48:53.362Z,4.37
2018-06-19T00:51:20.573Z,4.13
2018-06-19T00:53:47.769Z,4.30
2018-06-19T00:56:26.522Z,4.07
2018-06-19T00:58:53.857Z,4.10
2018-06-19T01:01:21.049Z,3.90
2018-06-19T01:03:48.236Z,3.87
2018-06-19T01:06:15.430Z,4.17
2018-06-19T01:08:42.625Z,3.97
2018-06-19T01:11:09.829Z,4.67
2018-06-19T01:13:37.029Z,3.87
2018-06-19T01:16:04.899Z,3.60
2018-06-19T01:18:32.097Z,3.50
2018-06-19T01:20:59.292Z,3.40
2018-06-19T01:23:26.487Z,4.03
2018-06-19T01:25:53.693Z,4.10
2018-06-19T01:28:20.897Z,3.50
2018-06-19T01:30:48.084Z,4.00
2018-06-19T01:33:15.277Z,3.27
2018-06-19T01:35:42.501Z,3.63
2018-06-19T01:38:09.741Z,4.00
2018-06-19T01:40:36.905Z,3.10
2018-06-19T01:43:04.297Z,4.20
2018-06-19T01:45:31.488Z,3.73
2018-06-19T01:47:58.685Z,4.10
2018-06-19T01:50:25.873Z,3.40
2018-06-19T01:52:53.065Z,3.97
2018-06-19T01:55:20.341Z,3.50
2018-06-19T01:57:47.537Z,3.60
2018-06-19T02:00:14.757Z,4.70
2018-06-19T02:02:41.973Z,4.10
2018-06-19T02:05:09.204Z,4.10
2018-06-19T02:07:36.424Z,4.43
2018-06-19T02:10:03.675Z,4.07
2018-06-19T02:12:30.916Z,3.67
2018-06-19T02:14:58.128Z,3.90
2018-06-19T02:17:25.341Z,4.03
2018-06-19T02:19:52.568Z,4.80
2018-06-19T02:22:19.785Z,4.87
2018-06-19T02:24:47.022Z,4.33
2018-06-19T02:27:14.261Z,4.37
2018-06-19T02:29:41.480Z,4.13
2018-06-19T02:32:08.697Z,4.23
2018-06-19T02:34:35.920Z,4.40
2018-06-19T02:37:03.150Z,3.83
2018-06-19T02:39:30.380Z,4.00
2018-06-19T02:41:57.601Z,4.30
2018-06-19T02:44:24.825Z,3.63
2018-06-19T02:46:52.060Z,3.93
2018-06-19T02:49:19.273Z,4.40
2018-06-19T02:51:46.492Z,3.97
2018-06-19T02:54:13.704Z,3.53
2018-06-19T02:56:40.973Z,4.37
2018-06-19T02:59:08.289Z,4.50
2018-06-19T03:01:35.626Z,5.27
2018-06-19T03:04:02.860Z,4.70
2018-06-19T03:06:30.093Z,3.93
2018-06-19T03:08:57.311Z,4.87
2018-06-19T03:11:24.528Z,3.93
2018-06-19T03:13:51.749Z,4.20
2018-06-19T03:16:18.984Z,4.80
2018-06-19T03:18:46.220Z,4.50
2018-06-19T03:21:13.433Z,4.70
2018-06-19T03:23:40.641Z,4.20
2018-06-19T03:26:07.856Z,4.23
2018-06-19T03:28:35.066Z,5.00
2018-06-19T03:31:02.313Z,4.10
2018-06-19T03:33:29.554Z,4.30
2018-06-19T03:35:56.783Z,3.73
2018-06-19T03:38:24.042Z,4.40
2018-06-19T03:40:53.441Z,4.37
2018-06-19T03:43:23.045Z,4.50
2018-06-19T03:45:50.260Z,4.70
2018-06-19T03:48:17.480Z,3.97
2018-06-19T03:50:44.693Z,4.13
2018-06-19T03:53:11.915Z,4.20
2018-06-19T03:55:39.238Z,4.27
2018-06-19T03:58:06.452Z,4.60
2018-06-19T04:00:33.825Z,3.37
2018-06-19T04:03:01.036Z,4.67
2018-06-19T04:05:28.278Z,4.83
2018-06-19T04:07:55.488Z,4.70
2018-06-19T04:10:22.781Z,4.37
2018-06-19T04:12:49.961Z,5.10
2018-06-19T04:15:17.176Z,4.43
2018-06-19T04:17:44.414Z,4.10
2018-06-19T04:20:11.661Z,4.10
2018-06-19T04:22:38.887Z,5.20
2018-06-19T04:25:06.120Z,4.13
2018-06-19T04:27:33.401Z,3.90
2018-06-19T04:30:00.625Z,5.07
2018-06-19T04:32:27.837Z,5.03
2018-06-19T04:34:55.049Z,4.67
2018-06-19T04:37:22.281Z,4.90
2018-06-19T04:39:49.493Z,5.10
2018-06-19T04:42:16.709Z,4.10
2018-06-19T04:44:43.923Z,5.10
2018-06-19T04:47:11.180Z,4.53
2018-06-19T04:49:38.398Z,5.47
2018-06-19T04:52:05.640Z,5.10
2018-06-19T04:54:33.025Z,4.10
2018-06-19T04:57:00.246Z,4.50
2018-06-19T04:59:27.457Z,4.43
2018-06-19T05:01:54.672Z,4.53
2018-06-19T05:04:22.505Z,4.90
2018-06-19T05:06:49.725Z,3.73
2018-06-19T05:09:16.938Z,5.10
2018-06-19T05:11:45.071Z,4.67
2018-06-19T05:14:12.288Z,4.47
2018-06-19T05:16:40.365Z,5.73
2018-06-19T05:19:07.592Z,4.67
2018-06-19T05:21:34.809Z,4.80
2018-06-19T05:24:02.080Z,5.00
2018-06-19T05:26:29.286Z,3.77
2018-06-19T05:28:56.990Z,4.37
2018-06-19T05:31:24.201Z,5.27
2018-06-19T05:33:51.424Z,5.70
2018-06-19T05:36:18.657Z,5.10
2018-06-19T05:38:45.869Z,4.93
2018-06-19T05:41:13.088Z,4.60
2018-06-19T05:43:40.315Z,4.90
2018-06-19T05:46:07.533Z,4.23
2018-06-19T05:48:34.769Z,4.33
2018-06-19T05:51:02.061Z,4.77
2018-06-19T05:53:29.286Z,4.80
2018-06-19T05:55:56.505Z,3.90
2018-06-19T05:58:23.729Z,4.33
2018-06-19T06:00:50.952Z,4.23
2018-06-19T06:03:18.180Z,3.40
2018-06-19T06:05:45.463Z,4.00
2018-06-19T06:08:12.637Z,4.10
2018-06-19T06:10:40.031Z,3.90
2018-06-19T06:13:07.136Z,3.90
2018-06-19T06:15:34.415Z,4.10
2018-06-19T06:18:01.600Z,3.37
2018-06-19T06:20:28.804Z,3.20
2018-06-19T06:22:56.049Z,3.93
2018-06-19T06:25:23.269Z,3.80
2018-06-19T06:27:50.497Z,3.80
2018-06-19T06:30:17.741Z,3.63
2018-06-19T06:32:45.145Z,3.40
2018-06-19T06:35:12.357Z,3.90
2018-06-19T06:37:39.568Z,3.63
2018-06-19T06:40:06.798Z,4.10
2018-06-19T06:42:34.016Z,3.23
2018-06-19T06:45:01.246Z,3.80
2018-06-19T06:47:28.461Z,3.47
2018-06-19T06:49:55.686Z,3.70
2018-06-19T06:52:22.905Z,3.83
2018-06-19T06:54:50.124Z,3.53
2018-06-19T06:57:17.376Z,4.47
2018-06-19T06:59:44.602Z,3.53
2018-06-19T07:02:11.827Z,3.50
2018-06-19T07:04:39.049Z,3.57
2018-06-19T07:07:06.284Z,3.87
2018-06-19T07:09:33.514Z,4.33
2018-06-19T07:12:00.726Z,3.57
2018-06-19T07:14:27.943Z,3.80
2018-06-19T07:16:55.168Z,3.23
2018-06-19T07:19:22.457Z,3.37
2018-06-19T07:21:49.617Z,4.30
2018-06-19T07:24:16.840Z,3.90
2018-06-19T07:26:44.059Z,3.27
2018-06-19T07:29:11.292Z,3.00
2018-06-19T07:31:38.505Z,3.57
2018-06-19T07:34:05.850Z,3.40
2018-06-19T07:36:33.081Z,3.50
2018-06-19T07:39:00.303Z,3.50
2018-06-19T07:41:27.533Z,3.27
2018-06-19T07:43:54.821Z,3.40
2018-06-19T07:46:22.046Z,3.90
2018-06-19T07:48:49.263Z,3.33
2018-06-19T07:51:16.486Z,3.97
2018-06-19T07:53:43.698Z,2.83
2018-06-19T07:56:10.924Z,2.40
2018-06-19T07:58:38.285Z,3.30
2018-06-19T08:01:05.564Z,2.80
2018-06-19T08:03:32.785Z,2.73
2018-06-19T08:06:00.001Z,2.80
2018-06-19T08:08:27.231Z,3.07
2018-06-19T08:10:54.496Z,3.43
2018-06-19T08:13:21.750Z,3.03
2018-06-19T08:15:48.964Z,3.40
2018-06-19T08:18:16.177Z,3.10
2018-06-19T08:20:43.392Z,2.80
2018-06-19T08:23:10.613Z,2.40
2018-06-19T08:25:37.843Z,3.43
2018-06-19T08:28:05.061Z,3.07
2018-06-19T08:30:32.267Z,3.80
2018-06-19T08:32:59.489Z,3.60
2018-06-19T08:35:26.702Z,3.83
2018-06-19T08:37:53.929Z,3.90
2018-06-19T08:40:21.145Z,3.23
2018-06-19T08:42:48.416Z,3.00
2018-06-19T08:45:15.644Z,3.50
2018-06-19T08:47:42.853Z,3.20
2018-06-19T08:50:10.062Z,2.30
2018-06-19T08:52:37.286Z,2.60
2018-06-19T08:55:04.661Z,3.10
2018-06-19T08:57:31.885Z,2.27
2018-06-19T08:59:59.100Z,2.40
2018-06-19T09:02:26.359Z,2.17
2018-06-19T09:04:53.653Z,2.60
2018-06-19T09:07:22.037Z,2.90
2018-06-19T09:09:49.261Z,2.27
2018-06-19T09:12:16.491Z,2.50
2018-06-19T09:14:43.730Z,2.17
2018-06-19T09:17:10.956Z,2.70
2018-06-19T09:19:38.416Z,2.50
2018-06-19T09:22:05.645Z,2.27
2018-06-19T09:24:32.899Z,2.70
2018-06-19T09:27:00.105Z,2.60
2018-06-19T09:29:27.341Z,2.60
2018-06-19T09:31:54.561Z,3.20
2018-06-19T09:34:21.797Z,2.80
2018-06-19T09:36:49.060Z,2.77
2018-06-19T09:39:16.297Z,2.90
2018-06-19T09:41:44.527Z,2.90
2018-06-19T09:44:11.896Z,2.20
2018-06-19T09:46:39.360Z,2.27
2018-06-19T09:49:06.593Z,2.40
2018-06-19T09:51:33.861Z,2.83
2018-06-19T09:54:01.370Z,2.30
2018-06-19T09:56:28.400Z,2.50
2018-06-19T09:58:55.879Z,2.17
2018-06-19T10:01:23.124Z,2.23
2018-06-19T10:03:50.353Z,2.77
2018-06-19T10:06:17.605Z,2.20
2018-06-19T10:08:44.877Z,2.30
2018-06-19T10:11:12.141Z,2.40
2018-06-19T10:13:39.377Z,2.10
2018-06-19T10:16:06.751Z,2.63
2018-06-19T10:18:33.989Z,2.50
2018-06-19T10:21:01.196Z,2.17
2018-06-19T10:23:28.426Z,2.40
2018-06-19T10:25:55.649Z,2.30
2018-06-19T10:28:22.861Z,2.40
2018-06-19T10:30:50.107Z,1.90
2018-06-19T10:33:17.360Z,2.20
2018-06-19T10:35:44.597Z,2.17
2018-06-19T10:38:11.829Z,2.62
2018-06-19T10:40:39.062Z,2.55
2018-06-19T10:43:06.303Z,1.82
2018-06-19T10:45:33.572Z,2.15
2018-06-19T10:48:00.785Z,2.02
2018-06-19T10:50:28.142Z,3.00
2018-06-19T10:52:55.381Z,2.20
2018-06-19T10:55:22.618Z,2.65
2018-06-19T10:57:49.861Z,2.30
2018-06-19T11:00:17.205Z,2.20
2018-06-19T11:02:44.418Z,1.70
2018-06-19T11:05:11.664Z,2.10
2018-06-19T11:07:38.861Z,1.97
2018-06-19T11:10:06.097Z,2.15
2018-06-19T11:12:33.344Z,2.17
2018-06-19T11:15:00.589Z,1.70
2018-06-19T11:17:27.805Z,1.62
2018-06-19T11:19:55.051Z,1.65
2018-06-19T11:22:22.267Z,1.95
2018-06-19T11:24:49.561Z,1.92
2018-06-19T11:27:16.779Z,1.82
2018-06-19T11:29:44.278Z,1.50
2018-06-19T11:32:11.741Z,1.82
2018-06-19T11:34:38.974Z,1.70
2018-06-19T11:37:06.577Z,1.62
2018-06-19T11:39:33.812Z,1.82
2018-06-19T11:42:01.033Z,2.27
2018-06-19T11:44:28.269Z,1.90
2018-06-19T11:46:55.514Z,1.90
2018-06-19T11:49:22.752Z,2.20
2018-06-19T11:51:49.972Z,2.00
2018-06-19T11:54:17.298Z,1.90
2018-06-19T11:56:44.570Z,2.47
2018-06-19T11:59:11.785Z,2.12
2018-06-19T12:01:39.017Z,2.27
2018-06-19T12:04:06.249Z,2.03
2018-06-19T12:06:33.485Z,2.10
2018-06-19T12:09:00.713Z,1.90
2018-06-19T12:11:28.009Z,1.82
2018-06-19T12:13:55.232Z,1.98
2018-06-19T12:16:22.486Z,1.82
2018-06-19T12:18:49.733Z,1.95
2018-06-19T12:21:17.005Z,1.90
2018-06-19T12:23:44.519Z,1.62
2018-06-19T12:26:11.793Z,1.92
2018-06-19T12:28:39.039Z,2.10
2018-06-19T12:31:06.504Z,1.67
2018-06-19T12:33:33.725Z,1.80
2018-06-19T12:36:00.976Z,1.95
2018-06-19T12:38:28.192Z,1.75
2018-06-19T12:40:55.413Z,1.60
2018-06-19T12:43:22.632Z,1.87
2018-06-19T12:45:49.855Z,2.00
2018-06-19T12:48:17.080Z,1.85
2018-06-19T12:51:56.313Z,1.90
2018-06-19T12:55:41.613Z,2.25
2018-06-19T12:58:08.876Z,1.73
2018-06-19T13:00:36.088Z,2.03
2018-06-19T13:03:14.944Z,2.07
2018-06-19T13:05:53.817Z,5.93
2018-06-19T13:08:21.041Z,1.90
2018-06-19T13:10:48.284Z,2.02
2018-06-19T13:13:29.427Z,5.05
2018-06-19T13:15:56.899Z,1.80
2018-06-19T13:18:36.960Z,2.40
2018-06-19T13:21:04.212Z,2.08
2018-06-19T13:23:31.811Z,2.40
2018-06-19T13:25:59.070Z,2.17
2018-06-19T13:28:38.312Z,1.70
2018-06-19T13:31:17.092Z,2.35
2018-06-19T13:33:44.334Z,1.77
2018-06-19T13:36:11.544Z,3.98
2018-06-19T13:38:39.058Z,2.02
2018-06-19T13:41:19.350Z,3.52
2018-06-19T13:43:59.712Z,3.40
2018-06-19T13:46:27.556Z,8.25
2018-06-19T13:48:54.777Z,6.70
2018-06-19T13:51:21.996Z,6.42
2018-06-19T13:53:49.856Z,2.22
2018-06-19T13:57:39.419Z,9.45
2018-06-19T14:00:08.874Z,2.08
2018-06-19T14:02:36.120Z,3.05
2018-06-19T14:05:04.093Z,2.67
2018-06-19T14:07:32.680Z,3.42
2018-06-19T14:10:11.562Z,3.83
2018-06-19T14:12:57.758Z,4.00
2018-06-19T14:15:25.755Z,2.25
2018-06-19T14:17:53.228Z,2.85
2018-06-19T14:20:20.610Z,2.55
2018-06-19T14:22:47.958Z,2.37
2018-06-19T14:25:15.642Z,1.90
2018-06-19T14:27:42.886Z,1.70
2018-06-19T14:30:10.115Z,1.95
2018-06-19T14:32:37.352Z,2.50
2018-06-19T14:35:04.656Z,1.80
2018-06-19T14:37:31.869Z,1.77
2018-06-19T14:39:59.224Z,1.95
2018-06-19T14:42:26.473Z,1.85
2018-06-19T14:44:53.835Z,2.20
2018-06-19T14:47:21.053Z,1.60
2018-06-19T14:49:48.305Z,1.90
2018-06-19T14:52:15.590Z,1.80
2018-06-19T14:54:42.841Z,2.15
2018-06-19T14:57:10.113Z,2.87
2018-06-19T14:59:37.342Z,2.05
2018-06-19T15:02:05.041Z,1.87
2018-06-19T15:04:32.345Z,1.52
2018-06-19T15:06:59.592Z,1.98
2018-06-19T15:09:26.906Z,1.95
2018-06-19T15:11:54.157Z,1.92
2018-06-19T15:14:21.424Z,2.00
2018-06-19T15:16:48.804Z,1.50
2018-06-19T15:19:16.017Z,1.55
2018-06-19T15:21:43.250Z,1.40
2018-06-19T15:24:10.637Z,1.60
2018-06-19T15:26:37.829Z,1.50
2018-06-19T15:29:05.184Z,1.90
2018-06-19T15:31:32.430Z,2.55
2018-06-19T15:33:59.650Z,1.70
2018-06-19T15:36:26.994Z,2.20
2018-06-19T15:38:54.336Z,1.80
2018-06-19T15:41:21.573Z,2.08
2018-06-19T15:43:48.792Z,1.92
2018-06-19T15:46:16.045Z,1.90
2018-06-19T15:48:44.160Z,1.98
2018-06-19T15:51:11.397Z,1.57
2018-06-19T15:53:38.641Z,1.70
2018-06-19T15:56:06.094Z,1.72
2018-06-19T15:58:33.329Z,2.00
2018-06-19T16:01:00.565Z,1.90
2018-06-19T16:03:27.943Z,1.82
2018-06-19T16:05:55.202Z,1.75
2018-06-19T16:08:22.517Z,1.62
2018-06-19T16:10:49.949Z,2.10
2018-06-19T16:13:17.201Z,2.27
2018-06-19T16:15:44.420Z,2.42
2018-06-19T16:18:12.228Z,2.02
2018-06-19T16:20:39.464Z,2.12
2018-06-19T16:23:07.004Z,1.77
2018-06-19T16:25:34.241Z,2.27
2018-06-19T16:28:01.591Z,1.90
2018-06-19T16:30:28.829Z,2.10
2018-06-19T16:32:56.073Z,2.20
2018-06-19T16:35:23.412Z,1.65
2018-06-19T16:37:50.648Z,1.80
2018-06-19T16:40:17.925Z,1.95
2018-06-19T16:42:45.141Z,4.95
2018-06-19T16:45:12.464Z,4.90
2018-06-19T16:47:39.690Z,2.10
2018-06-19T16:50:06.941Z,6.30
2018-06-19T16:52:34.459Z,1.70
2018-06-19T16:55:02.302Z,1.80
2018-06-19T16:57:29.729Z,1.80
2018-06-19T16:59:56.956Z,2.20
2018-06-19T17:02:24.185Z,1.60
2018-06-19T17:04:51.442Z,1.52
2018-06-19T17:07:18.879Z,2.20
2018-06-19T17:09:46.064Z,1.98
2018-06-19T17:12:13.425Z,1.62
2018-06-19T17:14:40.661Z,2.65
2018-06-19T17:17:08.714Z,1.80
2018-06-19T17:19:35.961Z,1.80
2018-06-19T17:22:03.222Z,5.28
2018-06-19T17:24:30.465Z,2.83
2018-06-19T17:26:57.716Z,2.53
2018-06-19T17:29:24.987Z,2.97
2018-06-19T17:31:52.236Z,2.83
2018-06-19T17:34:19.467Z,2.30
2018-06-19T17:36:46.709Z,2.10
2018-06-19T17:39:13.937Z,3.07
2018-06-19T17:41:41.268Z,2.90
2018-06-19T17:44:08.502Z,3.20
2018-06-19T17:46:35.932Z,2.10
2018-06-19T17:49:03.206Z,2.60
2018-06-19T17:51:30.441Z,2.40
2018-06-19T17:53:57.686Z,2.30
2018-06-19T17:56:25.084Z,2.80
2018-06-19T17:58:52.313Z,2.63
2018-06-19T18:01:19.633Z,2.50
2018-06-19T18:03:46.861Z,2.77
2018-06-19T18:06:14.097Z,2.70
2018-06-19T18:08:41.345Z,2.53
2018-06-19T18:11:08.578Z,2.90
2018-06-19T18:13:35.960Z,2.80
2018-06-19T18:16:03.196Z,2.43
2018-06-19T18:18:30.686Z,3.00
2018-06-19T18:20:57.928Z,2.53
2018-06-19T18:23:25.150Z,3.50
2018-06-19T18:25:52.381Z,3.20
2018-06-19T18:28:19.611Z,2.93
2018-06-19T18:30:46.906Z,3.40
2018-06-19T18:33:14.146Z,2.70
2018-06-19T18:35:41.430Z,3.23
2018-06-19T18:38:08.648Z,2.63
2018-06-19T18:40:35.879Z,2.60
2018-06-19T18:43:03.113Z,2.50
2018-06-19T18:45:30.340Z,3.27
2018-06-19T18:47:57.757Z,2.83
2018-06-19T18:50:24.973Z,3.10
2018-06-19T18:52:52.191Z,3.23
2018-06-19T18:55:19.416Z,2.70
2018-06-19T18:57:46.630Z,3.90
2018-06-19T19:00:14.006Z,2.90
2018-06-19T19:02:41.265Z,3.13
2018-06-19T19:05:08.513Z,3.47
2018-06-19T19:07:35.735Z,2.80
2018-06-19T19:10:08.632Z,3.00
2018-06-19T19:12:35.848Z,3.00
2018-06-19T19:15:09.173Z,3.07
2018-06-19T19:18:43.820Z,3.47
2018-06-19T19:21:11.121Z,2.80
2018-06-19T19:23:38.341Z,3.60
2018-06-19T19:26:05.573Z,3.83
2018-06-19T19:28:38.670Z,3.37
2018-06-19T19:31:06.185Z,2.97
2018-06-19T19:33:33.416Z,3.10
2018-06-19T19:36:00.658Z,4.30
2018-06-19T19:38:33.685Z,3.67
2018-06-19T19:41:00.902Z,3.20
2018-06-19T19:43:28.137Z,3.53
2018-06-19T19:45:55.365Z,4.60
2018-06-19T19:48:28.465Z,3.87
2018-06-19T19:50:55.742Z,4.13
2018-06-19T19:53:22.972Z,3.70
2018-06-19T19:55:55.890Z,4.00
2018-06-19T19:58:28.900Z,4.20
2018-06-19T20:00:56.133Z,4.10
2018-06-19T20:03:23.432Z,4.83
2018-06-19T20:05:50.661Z,4.17
2018-06-19T20:08:18.742Z,3.93
2018-06-19T20:10:46.022Z,3.97
2018-06-19T20:13:13.308Z,4.73
2018-06-19T20:15:40.585Z,4.30
2018-06-19T20:18:07.824Z,4.90
2018-06-19T20:20:35.058Z,4.10
2018-06-19T20:23:02.352Z,4.83
2018-06-19T20:25:29.584Z,4.67
2018-06-19T20:27:56.822Z,4.60
2018-06-19T20:30:24.161Z,4.20
2018-06-19T20:32:51.444Z,4.83
2018-06-19T20:35:18.661Z,4.57
2018-06-19T20:37:45.892Z,4.87
2018-06-19T20:40:13.135Z,4.77
2018-06-19T20:42:40.369Z,5.90
2018-06-19T20:45:07.596Z,5.57
2018-06-19T20:47:34.822Z,5.27
2018-06-19T20:50:02.080Z,5.40
2018-06-19T20:52:29.329Z,4.93
2018-06-19T20:54:56.544Z,4.87
2018-06-19T20:57:23.774Z,5.00
2018-06-19T20:59:51.001Z,5.23
2018-06-19T21:02:18.280Z,4.80
2018-06-19T21:04:45.486Z,4.20
2018-06-19T21:07:12.700Z,4.87
2018-06-19T21:09:39.925Z,5.00
2018-06-19T21:12:07.477Z,5.23
2018-06-19T21:14:34.725Z,5.03
2018-06-19T21:17:01.977Z,4.93
2018-06-19T21:19:29.236Z,5.10
2018-06-19T21:21:56.452Z,4.70
2018-06-19T21:24:23.735Z,4.20
2018-06-19T21:26:50.965Z,4.77
2018-06-19T21:29:18.241Z,4.90
2018-06-19T21:31:45.505Z,5.30
2018-06-19T21:34:12.702Z,4.53
2018-06-19T21:36:39.912Z,4.87
2018-06-19T21:39:08.103Z,5.50
2018-06-19T21:41:35.320Z,4.93
2018-06-19T21:44:02.866Z,4.20
2018-06-19T21:46:30.073Z,4.57
2018-06-19T21:48:57.297Z,3.60
2018-06-19T21:51:24.547Z,3.80
2018-06-19T21:53:51.769Z,3.70
2018-06-19T21:56:18.983Z,3.50
2018-06-19T21:58:46.221Z,4.80
2018-06-19T22:01:13.458Z,4.27
2018-06-19T22:03:40.693Z,3.60
2018-06-19T22:06:07.911Z,3.77
2018-06-19T22:09:06.316Z,4.57
2018-06-19T22:11:33.666Z,2.90
2018-06-19T22:14:00.884Z,3.33
2018-06-19T22:16:28.121Z,3.90
2018-06-19T22:18:55.394Z,3.33
2018-06-19T22:21:22.623Z,3.40
2018-06-19T22:23:49.836Z,3.50
2018-06-19T22:26:17.064Z,3.90
2018-06-19T22:28:44.280Z,3.30
2018-06-19T22:31:11.497Z,3.30
2018-06-19T22:33:38.765Z,3.20
2018-06-19T22:36:05.997Z,2.97
2018-06-19T22:38:33.306Z,3.00
2018-06-19T22:41:00.469Z,3.50
2018-06-19T22:43:27.701Z,2.83
2018-06-19T22:45:54.952Z,3.20
2018-06-19T22:48:22.183Z,2.90
2018-06-19T22:50:49.413Z,3.33
2018-06-19T22:53:16.756Z,3.23
2018-06-19T22:55:43.968Z,2.97
2018-06-19T22:58:11.176Z,3.77
2018-06-19T23:00:38.393Z,3.17
2018-06-19T23:03:05.704Z,3.10
2018-06-19T23:05:34.212Z,3.50
2018-06-19T23:08:01.444Z,3.10
2018-06-19T23:10:29.253Z,2.93
2018-06-19T23:12:56.922Z,3.47
2018-06-19T23:15:24.495Z,3.43
2018-06-19T23:17:51.855Z,3.53
2018-06-19T23:20:19.097Z,3.13
2018-06-19T23:22:47.708Z,3.43
2018-06-19T23:25:15.388Z,3.73
2018-06-19T23:27:42.629Z,3.20
2018-06-19T23:30:10.146Z,3.80
2018-06-19T23:32:37.360Z,3.40
2018-06-19T23:35:04.581Z,3.73
2018-06-19T23:37:31.798Z,3.90
2018-06-19T23:39:59.028Z,3.60
2018-06-19T23:42:26.240Z,3.73
2018-06-19T23:44:54.388Z,3.60
2018-06-19T23:47:21.617Z,3.43
2018-06-19T23:49:48.844Z,3.60
2018-06-19T23:52:16.061Z,3.97
2018-06-19T23:54:43.270Z,3.53
2018-06-19T23:57:10.493Z,4.27
2018-06-19T23:59:37.706Z,3.93
